Time;durP1;ratioP1;P1;durP2;ratioP2;P2;SDS_P1;SDS_P2;PMS_P1;PMS_P2;Temp;Humidity;BMP_temperature;BMP_pressure;BME280_temperature;BME280_humidity;BME280_pressure;Samples;Min_cycle;Max_cycle;Signal;HPM_P1;HPM_P2
2021/04/21 00:05:07;;;;;;;19.67;13.57;;;9.10;99.90;;;;;;6686736;89;20282;-78
2021/04/21 00:15:36;;;;;;;23.55;14.65;;;9.00;99.90;;;;;;6689481;88;20203;-78
2021/04/21 00:25:39;;;;;;;23.15;14.30;;;8.80;99.90;;;;;;6698415;89;20353;-78
2021/04/21 00:35:42;;;;;;;26.27;15.38;;;8.70;99.90;;;;;;6675303;78;20345;-76
2021/04/21 00:45:46;;;;;;;26.35;15.70;;;8.70;99.90;;;;;;6650515;88;20306;-76
2021/04/21 00:56:19;;;;;;;24.33;15.32;;;8.80;99.90;;;;;;6649905;89;20279;-76
2021/04/21 01:06:36;;;;;;;24.95;15.13;;;8.70;99.90;;;;;;6648746;89;20267;-76
2021/04/21 01:16:39;;;;;;;25.30;15.20;;;8.30;99.90;;;;;;6649498;89;20183;-76
2021/04/21 01:27:13;;;;;;;24.55;15.75;;;8.10;99.90;;;;;;6666196;89;20305;-77
2021/04/21 01:37:18;;;;;;;26.50;15.50;;;7.90;99.90;;;;;;6672682;89;20320;-77
2021/04/21 01:47:22;;;;;;;25.12;15.20;;;7.90;99.90;;;;;;6666896;89;20189;-77
2021/04/21 01:57:30;;;;;;;27.33;15.52;;;7.80;99.90;;;;;;6672386;89;20702;-77
2021/04/21 02:07:55;;;;;;;27.75;15.43;;;7.70;99.90;;;;;;6649151;89;20308;-77
2021/04/21 02:18:18;;;;;;;25.67;14.85;;;7.50;99.90;;;;;;6648949;89;20213;-76
2021/04/21 02:28:44;;;;;;;25.88;15.05;;;7.60;99.90;;;;;;6648506;89;20284;-76
2021/04/21 02:39:35;;;;;;;28.20;16.58;;;7.40;99.90;;;;;;6647842;89;20212;-76
2021/04/21 02:49:57;;;;;;;26.90;15.27;;;7.30;99.90;;;;;;6652724;89;20217;-77
2021/04/21 03:00:06;;;;;;;25.77;15.77;;;7.20;99.90;;;;;;6648083;89;20277;-76
2021/04/21 03:10:11;;;;;;;29.17;15.95;;;7.20;99.90;;;;;;6647849;89;20222;-76
2021/04/21 03:20:15;;;;;;;29.17;15.30;;;7.10;99.90;;;;;;6646552;89;20207;-77
2021/04/21 03:30:18;;;;;;;27.62;15.90;;;6.90;99.90;;;;;;6647490;89;20204;-76
2021/04/21 03:40:18;;;;;;;31.67;17.50;;;6.70;99.90;;;;;;6646728;89;20231;-76
2021/04/21 03:50:20;;;;;;;29.70;17.15;;;6.50;99.90;;;;;;6645821;89;20333;-76
2021/04/21 04:00:21;;;;;;;31.62;17.65;;;6.40;99.90;;;;;;6651126;89;20227;-77
2021/04/21 04:10:25;;;;;;;31.10;16.98;;;6.20;99.90;;;;;;6673055;89;20192;-76
2021/04/21 04:20:27;;;;;;;27.60;16.15;;;6.30;99.90;;;;;;6672764;89;20197;-77
2021/04/21 04:30:30;;;;;;;30.15;16.80;;;6.20;99.90;;;;;;6667629;89;20796;-76
2021/04/21 04:40:32;;;;;;;30.67;15.88;;;6.20;99.90;;;;;;6667323;89;20333;-76
2021/04/21 04:50:36;;;;;;;28.73;15.95;;;6.30;99.90;;;;;;6666309;89;20595;-76
2021/04/21 05:00:38;;;;;;;30.17;16.77;;;6.20;99.90;;;;;;6661809;89;20328;-76
2021/04/21 05:10:52;;;;;;;27.75;15.93;;;6.30;99.90;;;;;;6662633;89;20225;-76
2021/04/21 05:21:24;;;;;;;28.42;16.20;;;6.20;99.90;;;;;;6663984;89;20211;-77
2021/04/21 05:31:52;;;;;;;31.95;16.42;;;6.20;99.90;;;;;;6666007;89;20805;-77
2021/04/21 05:42:24;;;;;;;28.90;16.00;;;6.40;99.90;;;;;;6665643;89;20219;-77
2021/04/21 05:53:01;;;;;;;31.33;17.52;;;6.50;99.90;;;;;;6659310;89;20217;-77
2021/04/21 06:03:03;;;;;;;29.90;16.17;;;7.00;99.90;;;;;;6665507;89;20198;-77
2021/04/21 06:13:03;;;;;;;32.63;18.15;;;7.60;99.90;;;;;;6664611;88;20785;-77
2021/04/21 06:23:05;;;;;;;29.90;17.52;;;8.00;99.90;;;;;;6663442;89;20310;-77
2021/04/21 06:33:47;;;;;;;29.33;17.67;;;8.50;99.90;;;;;;6723625;77;20334;-77
2021/04/21 06:43:48;;;;;;;30.92;17.62;;;8.80;99.90;;;;;;6735320;88;20270;-77
2021/04/21 06:53:51;;;;;;;32.17;18.42;;;9.40;99.90;;;;;;6723955;88;20636;-77
2021/04/21 07:03:54;;;;;;;30.85;18.33;;;9.70;99.90;;;;;;6722624;88;20280;-77
2021/04/21 07:13:55;;;;;;;33.85;18.15;;;10.20;99.90;;;;;;6737499;88;20206;-77
2021/04/21 07:23:58;;;;;;;32.05;19.23;;;10.60;99.90;;;;;;6725060;88;20668;-77
2021/04/21 07:34:00;;;;;;;34.25;20.05;;;10.80;99.90;;;;;;6725521;88;20194;-77
2021/04/21 07:44:01;;;;;;;35.28;21.30;;;12.10;99.90;;;;;;6730264;88;20317;-76
2021/04/21 07:54:08;;;;;;;44.58;27.20;;;13.30;99.90;;;;;;6726829;88;20219;-77
2021/04/21 08:04:27;;;;;;;46.97;27.02;;;13.90;99.90;;;;;;6729059;88;20189;-76
2021/04/21 08:14:38;;;;;;;50.72;30.48;;;14.20;99.90;;;;;;6728046;88;20266;-76
2021/04/21 08:24:41;;;;;;;51.70;31.00;;;14.60;99.90;;;;;;6727079;88;20198;-78
2021/04/21 08:34:42;;;;;;;51.78;32.28;;;15.50;99.90;;;;;;6730765;88;20313;-78
2021/04/21 08:44:43;;;;;;;44.92;30.12;;;16.70;99.90;;;;;;6733958;88;20210;-77
2021/04/21 08:54:46;;;;;;;50.47;32.28;;;16.30;99.90;;;;;;6732383;88;20230;-78
2021/04/21 09:04:47;;;;;;;53.47;32.22;;;15.50;99.90;;;;;;6731637;88;20292;-77
2021/04/21 09:14:48;;;;;;;57.33;34.90;;;14.50;99.90;;;;;;6732523;88;20604;-77
2021/04/21 09:24:56;;;;;;;58.03;35.17;;;13.60;99.90;;;;;;6734152;88;20183;-78
2021/04/21 09:34:57;;;;;;;63.22;35.97;;;13.30;99.90;;;;;;6730179;88;21022;-77
2021/04/21 09:44:57;;;;;;;61.28;36.13;;;13.30;99.90;;;;;;6728197;88;20261;-76
2021/04/21 09:54:58;;;;;;;66.72;36.40;;;13.00;99.90;;;;;;6728602;88;20211;-76
2021/04/21 10:05:29;;;;;;;61.92;36.53;;;13.00;99.90;;;;;;6731700;88;20202;-78
2021/04/21 10:15:30;;;;;;;64.72;35.47;;;13.60;99.90;;;;;;6733694;88;20285;-77
2021/04/21 10:25:32;;;;;;;62.10;36.72;;;14.00;99.90;;;;;;6729707;88;20190;-77
2021/04/21 10:35:32;;;;;;;63.58;36.63;;;14.10;99.90;;;;;;6733661;88;20178;-77
2021/04/21 10:45:48;;;;;;;60.67;36.13;;;14.10;99.90;;;;;;6730011;88;20667;-76
2021/04/21 10:55:49;;;;;;;59.17;35.05;;;14.80;99.90;;;;;;6720226;88;20207;-77
2021/04/21 11:06:02;;;;;;;58.87;35.97;;;15.50;99.90;;;;;;6729115;88;20207;-76
2021/04/21 11:16:06;;;;;;;52.88;34.13;;;16.70;99.90;;;;;;6728121;88;20192;-77
2021/04/21 11:26:26;;;;;;;52.00;33.07;;;18.20;99.90;;;;;;6731940;88;21009;-77
2021/04/21 11:36:38;;;;;;;50.17;30.75;;;18.60;99.90;;;;;;6730336;88;20217;-77
2021/04/21 11:47:02;;;;;;;41.47;26.67;;;19.60;99.90;;;;;;6726596;88;20235;-76
2021/04/21 11:57:02;;;;;;;43.97;28.00;;;19.60;99.50;;;;;;6729581;88;20232;-77
2021/04/21 12:07:03;;;;;;;43.70;29.03;;;19.70;99.60;;;;;;6728077;88;20263;-77
2021/04/21 12:17:10;;;;;;;41.47;26.75;;;20.40;98.50;;;;;;6732274;88;21225;-78
2021/04/21 12:27:28;;;;;;;43.33;28.95;;;20.50;97.60;;;;;;6727437;88;22236;-77
2021/04/21 12:37:28;;;;;;;40.75;26.87;;;20.90;96.90;;;;;;6723815;88;20997;-77
2021/04/21 12:47:32;;;;;;;32.58;20.35;;;21.30;93.80;;;;;;6725347;88;20199;-77
2021/04/21 12:57:47;;;;;;;27.70;18.15;;;22.80;83.90;;;;;;6724836;88;20197;-77
2021/04/21 13:07:48;;;;;;;24.60;16.23;;;23.10;77.50;;;;;;6723119;88;20263;-77
2021/04/21 13:17:54;;;;;;;25.00;18.23;;;23.00;73.10;;;;;;6724686;88;20287;-75
2021/04/21 13:27:55;;;;;;;26.48;17.90;;;23.20;70.00;;;;;;6727367;88;20661;-75
2021/04/21 13:37:55;;;;;;;28.35;19.27;;;23.50;66.80;;;;;;6726199;88;20197;-77
2021/04/21 13:47:56;;;;;;;24.42;17.20;;;23.80;66.50;;;;;;6730213;88;20185;-76
2021/04/21 13:57:57;;;;;;;27.10;18.30;;;22.90;64.90;;;;;;6718221;88;20190;-77
2021/04/21 14:07:57;;;;;;;26.35;15.35;;;21.60;65.50;;;;;;6728775;88;20276;-77
2021/04/21 14:17:59;;;;;;;20.00;12.98;;;22.00;64.40;;;;;;6727963;88;20800;-76
2021/04/21 14:27:59;;;;;;;20.02;12.52;;;21.20;61.50;;;;;;6727796;88;20181;-76
2021/04/21 14:38:00;;;;;;;17.90;12.55;;;20.90;62.20;;;;;;6724873;88;20218;-76
2021/04/21 14:48:01;;;;;;;17.77;12.65;;;21.20;62.10;;;;;;6719262;88;20229;-76
2021/04/21 14:58:01;;;;;;;22.30;12.60;;;20.50;62.80;;;;;;6724889;88;20218;-76
2021/04/21 15:08:02;;;;;;;19.40;12.65;;;20.60;63.10;;;;;;6725747;88;20185;-75
2021/04/21 15:18:05;;;;;;;16.98;12.05;;;20.30;62.40;;;;;;6725846;88;20275;-76
2021/04/21 15:28:06;;;;;;;16.80;11.95;;;20.80;61.30;;;;;;6726504;88;20214;-76
2021/04/21 15:38:07;;;;;;;18.20;10.85;;;21.10;60.30;;;;;;6723969;88;20665;-77
2021/04/21 15:48:08;;;;;;;17.05;11.77;;;21.30;60.40;;;;;;6724958;88;20289;-76
2021/04/21 15:58:12;;;;;;;21.75;12.80;;;21.30;60.80;;;;;;6714655;88;20194;-77
2021/04/21 16:08:13;;;;;;;23.87;13.00;;;20.70;62.90;;;;;;6712442;88;20189;-77
2021/04/21 16:18:14;;;;;;;17.57;12.10;;;20.20;64.90;;;;;;6717737;88;20242;-77
2021/04/21 16:28:14;;;;;;;18.30;12.52;;;20.20;65.40;;;;;;6715570;88;20549;-77
2021/04/21 16:38:15;;;;;;;19.73;13.85;;;19.70;66.50;;;;;;6715901;88;20348;-77
2021/04/21 16:48:16;;;;;;;20.53;13.67;;;19.10;68.70;;;;;;6723401;88;20207;-75
2021/04/21 16:58:21;;;;;;;24.20;14.40;;;18.90;68.60;;;;;;6725537;88;20503;-74
2021/04/21 17:08:22;;;;;;;23.75;13.82;;;18.80;69.20;;;;;;6724830;88;20252;-76
2021/04/21 17:18:23;;;;;;;19.45;12.88;;;18.10;70.70;;;;;;6737882;88;20348;-79
2021/04/21 17:28:23;;;;;;;19.87;12.98;;;17.60;71.30;;;;;;6723644;88;20189;-79
2021/04/21 17:38:24;;;;;;;19.62;12.80;;;17.40;71.60;;;;;;6723282;88;20242;-76
2021/04/21 17:48:26;;;;;;;21.12;13.13;;;17.00;72.80;;;;;;6730167;88;20233;-77
2021/04/21 17:58:29;;;;;;;21.62;13.62;;;16.60;73.10;;;;;;6731353;88;20187;-78
2021/04/21 18:08:30;;;;;;;20.75;13.90;;;16.30;74.80;;;;;;6728280;88;20654;-77
2021/04/21 18:18:31;;;;;;;22.83;13.02;;;15.90;78.00;;;;;;6726773;88;20199;-77
2021/04/21 18:28:33;;;;;;;21.30;12.20;;;15.40;86.80;;;;;;6727003;88;20266;-77
2021/04/21 18:38:34;;;;;;;24.33;12.75;;;15.00;92.70;;;;;;6742140;88;20523;-76
2021/04/21 18:48:34;;;;;;;18.45;11.27;;;14.50;95.70;;;;;;6745149;88;20274;-77
2021/04/21 18:58:38;;;;;;;16.58;10.00;;;14.10;97.50;;;;;;6736979;88;20248;-77
2021/04/21 19:08:38;;;;;;;14.95;9.40;;;13.80;99.00;;;;;;6734384;88;20227;-78
2021/04/21 19:18:40;;;;;;;15.43;8.55;;;13.70;99.90;;;;;;6719744;88;20197;-77
2021/04/21 19:28:41;;;;;;;16.62;7.80;;;13.60;99.90;;;;;;6725621;88;20934;-77
2021/04/21 19:38:41;;;;;;;12.77;6.97;;;13.50;99.90;;;;;;6726139;88;20221;-76
2021/04/21 19:48:42;;;;;;;15.80;6.40;;;13.50;99.90;;;;;;6720772;88;20319;-76
2021/04/21 19:58:42;;;;;;;13.20;4.95;;;13.30;99.90;;;;;;6723655;88;20197;-76
2021/04/21 20:08:44;;;;;;;10.77;4.20;;;12.90;99.90;;;;;;6728710;88;20204;-76
2021/04/21 20:18:45;;;;;;;11.02;4.00;;;12.50;99.90;;;;;;6721432;88;20284;-76
2021/04/21 20:28:45;;;;;;;10.05;3.78;;;12.20;99.90;;;;;;6721599;88;20206;-78
2021/04/21 20:38:46;;;;;;;11.02;4.15;;;11.90;99.90;;;;;;6731228;88;20237;-77
2021/04/21 20:48:47;;;;;;;9.27;3.63;;;11.90;99.90;;;;;;6730265;88;20664;-77
2021/04/21 20:58:47;;;;;;;9.27;3.90;;;11.80;99.90;;;;;;6728083;88;20505;-77
2021/04/21 21:08:48;;;;;;;11.75;3.90;;;11.60;99.90;;;;;;6732172;88;20209;-75
2021/04/21 21:18:48;;;;;;;15.05;3.60;;;11.30;99.90;;;;;;6728677;88;20191;-77
2021/04/21 21:28:50;;;;;;;14.05;4.00;;;11.00;99.90;;;;;;6733124;88;20184;-77
2021/04/21 21:38:51;;;;;;;10.00;3.28;;;10.80;99.90;;;;;;6729355;88;20247;-77
2021/04/21 21:48:51;;;;;;;12.07;3.97;;;10.70;99.90;;;;;;6726776;88;20198;-76
2021/04/21 21:58:52;;;;;;;15.27;3.57;;;10.50;99.90;;;;;;6724197;88;20199;-77
2021/04/21 22:08:53;;;;;;;12.93;3.33;;;10.20;99.90;;;;;;6733286;88;21482;-77
2021/04/21 22:18:53;;;;;;;6.78;2.47;;;10.10;99.90;;;;;;6734934;88;20548;-77
2021/04/21 22:28:54;;;;;;;9.95;2.25;;;9.90;99.90;;;;;;6732767;88;20226;-75
2021/04/21 22:38:55;;;;;;;10.95;2.37;;;9.60;99.90;;;;;;6724864;88;20785;-74
2021/04/21 22:48:55;;;;;;;11.70;2.25;;;9.50;99.90;;;;;;6733953;88;20332;-76
2021/04/21 22:58:56;;;;;;;10.25;2.00;;;9.20;99.90;;;;;;6732815;88;20224;-76
2021/04/21 23:08:56;;;;;;;11.12;2.00;;;9.10;99.90;;;;;;6731811;88;20239;-77
2021/04/21 23:18:57;;;;;;;7.15;2.03;;;8.80;99.90;;;;;;6729947;88;20247;-77
2021/04/21 23:28:57;;;;;;;7.68;1.42;;;8.60;99.90;;;;;;6722284;88;20200;-77
2021/04/21 23:38:58;;;;;;;7.10;1.40;;;8.40;99.90;;;;;;6731220;88;20668;-76
2021/04/21 23:48:58;;;;;;;7.82;1.60;;;8.20;99.90;;;;;;6726493;88;20698;-76
2021/04/21 23:58:59;;;;;;;7.40;1.52;;;8.00;99.90;;;;;;6731492;88;20316;-75
